Time,TemperatureF,DewpointF,PressureIn,WindDirection,WindDirectionDegrees,WindSpeedMPH,WindSpeedGustMPH,Humidity,HourlyPrecipIn,Conditions,Clouds,dailyrainin,SoftwareType,DateUTC
2013-12-01 00:02:00,29.5,24.1,30.37,NNE,19,0.0,0.9,80,0.00,,,0.00,meteobridge,2013-12-01 05:02:00,
2013-12-01 00:04:00,29.5,24.4,30.37,NNE,19,0.0,0.0,81,0.00,,,0.00,meteobridge,2013-12-01 05:04:00,
2013-12-01 00:08:00,29.5,24.4,30.37,NNE,20,0.9,0.9,81,0.00,,,0.00,meteobridge,2013-12-01 05:08:00,
2013-12-01 00:10:00,29.3,24.3,30.37,East,84,0.0,2.0,81,0.00,,,0.00,meteobridge,2013-12-01 05:10:00,
2013-12-01 00:17:00,29.5,24.4,30.36,NNW,333,0.9,0.9,81,0.00,,,0.00,meteobridge,2013-12-01 05:17:00,
2013-12-01 00:23:00,29.5,24.4,30.36,East,96,0.9,0.9,81,0.00,,,0.00,meteobridge,2013-12-01 05:23:00,
2013-12-01 00:29:00,29.7,24.8,30.36,East,94,0.0,0.0,82,0.00,,,0.00,meteobridge,2013-12-01 05:29:00,
2013-12-01 00:35:00,29.7,24.8,30.35,East,95,0.0,0.0,82,0.00,,,0.00,meteobridge,2013-12-01 05:35:00,
2013-12-01 00:37:00,29.7,24.8,30.36,East,94,0.0,0.0,82,0.00,,,0.00,meteobridge,2013-12-01 05:37:00,
2013-12-01 00:43:00,29.7,24.8,30.35,East,94,0.0,0.9,82,0.00,,,0.00,meteobridge,2013-12-01 05:43:00,
2013-12-01 00:49:00,29.7,24.6,30.35,East,94,0.0,0.0,81,0.00,,,0.00,meteobridge,2013-12-01 05:49:00,
2013-12-01 00:56:00,29.7,24.8,30.34,East,94,0.0,0.9,82,0.00,,,0.00,meteobridge,2013-12-01 05:56:00,
2013-12-01 01:02:00,29.7,24.8,30.34,East,94,0.0,0.0,82,0.00,,,0.00,meteobridge,2013-12-01 06:02:00,
2013-12-01 01:08:00,29.7,24.8,30.34,East,95,0.0,0.0,82,0.00,,,0.00,meteobridge,2013-12-01 06:08:00,
2013-12-01 01:14:00,29.7,24.8,30.34,East,95,0.0,0.0,82,0.00,,,0.00,meteobridge,2013-12-01 06:14:00,
2013-12-01 01:21:00,29.7,24.8,30.33,East,94,0.0,0.0,82,0.00,,,0.00,meteobridge,2013-12-01 06:21:00,
2013-12-01 01:27:00,29.5,25.0,30.33,East,94,0.0,0.9,83,0.00,,,0.00,meteobridge,2013-12-01 06:27:00,
2013-12-01 01:33:00,29.5,25.0,30.33,East,95,0.0,0.0,83,0.00,,,0.00,meteobridge,2013-12-01 06:33:00,
2013-12-01 01:35:00,29.5,25.0,30.33,East,95,0.0,0.0,83,0.00,,,0.00,meteobridge,2013-12-01 06:35:00,
2013-12-01 01:41:00,29.3,24.8,30.33,East,95,0.0,0.0,83,0.00,,,0.00,meteobridge,2013-12-01 06:41:00,
2013-12-01 01:48:00,29.1,24.6,30.33,North,8,0.9,0.9,83,0.00,,,0.00,meteobridge,2013-12-01 06:48:00,
2013-12-01 01:54:00,28.9,24.8,30.33,North,8,0.0,0.0,84,0.00,,,0.00,meteobridge,2013-12-01 06:54:00,
2013-12-01 02:00:00,28.9,25.3,30.33,North,8,0.0,0.9,86,0.00,,,0.00,meteobridge,2013-12-01 07:00:00,
2013-12-01 02:07:00,28.9,25.3,30.33,North,7,0.0,0.9,86,0.00,,,0.00,meteobridge,2013-12-01 07:07:00,
2013-12-01 02:13:00,28.9,25.3,30.33,North,8,0.0,0.0,86,0.00,,,0.00,meteobridge,2013-12-01 07:13:00,
2013-12-01 02:19:00,28.8,25.2,30.33,North,8,0.0,0.0,86,0.00,,,0.00,meteobridge,2013-12-01 07:19:00,
2013-12-01 02:25:00,28.8,25.2,30.33,North,8,0.9,0.9,86,0.00,,,0.00,meteobridge,2013-12-01 07:25:00,
2013-12-01 02:31:00,28.6,25.0,30.32,North,4,0.0,0.9,86,0.00,,,0.00,meteobridge,2013-12-01 07:31:00,
2013-12-01 02:38:00,28.6,25.0,30.32,North,5,0.0,0.9,86,0.00,,,0.00,meteobridge,2013-12-01 07:38:00,
2013-12-01 02:44:00,28.4,25.0,30.32,North,5,0.0,0.0,87,0.00,,,0.00,meteobridge,2013-12-01 07:44:00,
2013-12-01 02:50:00,28.6,25.2,30.32,North,4,0.0,0.0,87,0.00,,,0.00,meteobridge,2013-12-01 07:50:00,
2013-12-01 02:56:00,28.6,25.2,30.31,North,5,0.0,0.0,87,0.00,,,0.00,meteobridge,2013-12-01 07:56:00,
2013-12-01 03:03:00,28.2,24.6,30.31,North,5,0.0,0.0,86,0.00,,,0.00,meteobridge,2013-12-01 08:03:00,
2013-12-01 03:09:00,28.0,24.4,30.30,North,5,0.0,0.0,86,0.00,,,0.00,meteobridge,2013-12-01 08:09:00,
2013-12-01 03:15:00,28.0,24.6,30.30,North,5,0.0,0.0,87,0.00,,,0.00,meteobridge,2013-12-01 08:15:00,
2013-12-01 03:21:00,27.7,24.3,30.29,North,5,0.0,0.0,87,0.00,,,0.00,meteobridge,2013-12-01 08:21:00,
2013-12-01 03:28:00,27.5,24.4,30.29,North,4,0.0,0.0,88,0.00,,,0.00,meteobridge,2013-12-01 08:28:00,
2013-12-01 03:34:00,27.1,24.1,30.29,North,4,0.0,0.0,88,0.00,,,0.00,meteobridge,2013-12-01 08:34:00,
2013-12-01 03:40:00,27.1,24.3,30.29,North,6,0.0,0.0,89,0.00,,,0.00,meteobridge,2013-12-01 08:40:00,
2013-12-01 03:47:00,27.0,24.1,30.28,North,6,0.0,0.0,89,0.00,,,0.00,meteobridge,2013-12-01 08:47:00,
2013-12-01 03:53:00,27.0,24.1,30.28,North,6,0.0,0.0,89,0.00,,,0.00,meteobridge,2013-12-01 08:53:00,
2013-12-01 03:59:00,27.0,24.4,30.27,North,6,0.0,0.0,90,0.00,,,0.00,meteobridge,2013-12-01 08:59:00,
2013-12-01 04:05:00,27.0,24.1,30.27,North,6,0.0,0.0,89,0.00,,,0.00,meteobridge,2013-12-01 09:05:00,
2013-12-01 04:12:00,26.8,24.3,30.27,North,4,0.0,0.0,90,0.00,,,0.00,meteobridge,2013-12-01 09:12:00,
2013-12-01 04:18:00,26.6,24.1,30.27,North,5,0.0,0.0,90,0.00,,,0.00,meteobridge,2013-12-01 09:18:00,
2013-12-01 04:24:00,26.4,23.9,30.27,North,6,0.0,0.0,90,0.00,,,0.00,meteobridge,2013-12-01 09:24:00,
2013-12-01 04:30:00,26.4,23.9,30.26,North,6,0.0,0.0,90,0.00,,,0.00,meteobridge,2013-12-01 09:30:00,
2013-12-01 04:37:00,26.4,24.1,30.26,North,6,0.0,0.0,91,0.00,,,0.00,meteobridge,2013-12-01 09:37:00,
2013-12-01 04:43:00,26.2,23.9,30.25,North,357,0.0,0.0,91,0.00,,,0.00,meteobridge,2013-12-01 09:43:00,
2013-12-01 04:49:00,25.9,23.4,30.25,North,357,0.0,0.0,90,0.00,,,0.00,meteobridge,2013-12-01 09:49:00,
2013-12-01 04:55:00,25.7,23.4,30.25,North,356,0.0,0.0,91,0.00,,,0.00,meteobridge,2013-12-01 09:55:00,
2013-12-01 05:01:00,25.7,23.4,30.25,North,356,0.0,0.0,91,0.00,,,0.00,meteobridge,2013-12-01 10:01:00,
2013-12-01 05:08:00,25.5,23.2,30.25,North,356,0.0,0.0,91,0.00,,,0.00,meteobridge,2013-12-01 10:08:00,
2013-12-01 05:14:00,25.5,23.5,30.25,North,356,0.0,0.0,92,0.00,,,0.00,meteobridge,2013-12-01 10:14:00,
2013-12-01 05:20:00,25.3,23.4,30.25,North,357,0.0,0.0,92,0.00,,,0.00,meteobridge,2013-12-01 10:20:00,
2013-12-01 05:26:00,25.2,23.2,30.25,North,356,0.0,0.0,92,0.00,,,0.00,meteobridge,2013-12-01 10:26:00,
2013-12-01 05:33:00,25.2,23.2,30.24,North,356,0.0,0.0,92,0.00,,,0.00,meteobridge,2013-12-01 10:33:00,
2013-12-01 05:39:00,25.2,23.2,30.24,North,357,0.0,0.0,92,0.00,,,0.00,meteobridge,2013-12-01 10:39:00,
2013-12-01 05:45:00,25.0,23.0,30.24,North,357,0.0,0.0,92,0.00,,,0.00,meteobridge,2013-12-01 10:45:00,
2013-12-01 05:51:00,25.2,23.2,30.24,North,357,0.0,0.0,92,0.00,,,0.00,meteobridge,2013-12-01 10:51:00,
2013-12-01 05:58:00,25.2,23.2,30.24,North,356,0.0,0.0,92,0.00,,,0.00,meteobridge,2013-12-01 10:58:00,
2013-12-01 06:04:00,25.2,23.4,30.24,North,357,0.0,0.0,93,0.00,,,0.00,meteobridge,2013-12-01 11:04:00,
2013-12-01 06:10:00,25.3,23.5,30.24,North,357,0.0,0.0,93,0.00,,,0.00,meteobridge,2013-12-01 11:10:00,
2013-12-01 06:16:00,25.0,23.0,30.24,North,357,0.0,0.0,92,0.00,,,0.00,meteobridge,2013-12-01 11:16:00,
2013-12-01 06:23:00,24.6,22.6,30.24,North,357,0.0,0.0,92,0.00,,,0.00,meteobridge,2013-12-01 11:23:00,
2013-12-01 06:29:00,25.2,23.4,30.24,North,357,0.0,0.0,93,0.00,,,0.00,meteobridge,2013-12-01 11:29:00,
2013-12-01 06:35:00,25.5,23.7,30.24,North,356,0.0,0.0,93,0.00,,,0.00,meteobridge,2013-12-01 11:35:00,
2013-12-01 06:41:00,25.9,24.1,30.24,North,357,0.0,0.0,93,0.00,,,0.00,meteobridge,2013-12-01 11:41:00,
2013-12-01 06:47:00,25.9,24.1,30.24,North,357,0.0,0.0,93,0.00,,,0.00,meteobridge,2013-12-01 11:47:00,
2013-12-01 06:53:00,25.7,23.7,30.24,North,356,0.0,0.0,92,0.00,,,0.00,meteobridge,2013-12-01 11:53:00,
2013-12-01 07:00:00,25.3,23.4,30.24,North,356,0.0,0.0,92,0.00,,,0.00,meteobridge,2013-12-01 12:00:00,
2013-12-01 07:06:00,25.3,23.5,30.23,North,356,0.0,0.0,93,0.00,,,0.00,meteobridge,2013-12-01 12:06:00,
2013-12-01 07:12:00,25.7,23.9,30.23,North,357,0.0,0.0,93,0.00,,,0.00,meteobridge,2013-12-01 12:12:00,
2013-12-01 07:18:00,26.1,24.3,30.23,North,357,0.0,0.0,93,0.00,,,0.00,meteobridge,2013-12-01 12:18:00,
2013-12-01 07:25:00,26.1,24.3,30.23,North,357,0.0,0.0,93,0.00,,,0.00,meteobridge,2013-12-01 12:25:00,
2013-12-01 07:31:00,26.2,24.4,30.23,North,357,0.0,0.0,93,0.00,,,0.00,meteobridge,2013-12-01 12:31:00,
2013-12-01 07:37:00,27.0,25.2,30.23,North,357,0.0,0.0,93,0.00,,,0.00,meteobridge,2013-12-01 12:37:00,
2013-12-01 07:44:00,27.3,25.5,30.22,North,356,0.0,0.0,93,0.00,,,0.00,meteobridge,2013-12-01 12:44:00,
2013-12-01 07:50:00,27.7,25.9,30.22,North,357,0.0,0.0,93,0.00,,,0.00,meteobridge,2013-12-01 12:50:00,
2013-12-01 07:56:00,28.0,26.2,30.22,North,357,0.0,0.0,93,0.00,,,0.00,meteobridge,2013-12-01 12:56:00,
2013-12-01 08:02:00,29.1,27.3,30.22,North,356,0.0,0.0,93,0.00,,,0.00,meteobridge,2013-12-01 13:02:00,
2013-12-01 08:09:00,29.7,27.7,30.22,North,356,0.0,0.0,92,0.00,,,0.00,meteobridge,2013-12-01 13:09:00,
2013-12-01 08:15:00,30.6,28.2,30.22,North,357,0.0,0.0,91,0.00,,,0.00,meteobridge,2013-12-01 13:15:00,
2013-12-01 08:21:00,31.8,29.3,30.22,North,356,0.0,0.0,90,0.00,,,0.00,meteobridge,2013-12-01 13:21:00,
2013-12-01 08:27:00,33.3,30.0,30.22,North,356,0.0,0.0,88,0.00,,,0.00,meteobridge,2013-12-01 13:27:00,
2013-12-01 08:34:00,34.3,29.7,30.21,North,357,0.0,0.0,83,0.00,,,0.00,meteobridge,2013-12-01 13:34:00,
2013-12-01 08:40:00,33.6,28.0,30.21,SE,138,0.0,0.0,80,0.00,,,0.00,meteobridge,2013-12-01 13:40:00,
2013-12-01 08:46:00,32.7,27.9,30.21,SE,138,0.0,0.0,82,0.00,,,0.00,meteobridge,2013-12-01 13:46:00,
2013-12-01 08:52:00,32.4,28.0,30.20,SE,131,0.0,0.0,84,0.00,,,0.00,meteobridge,2013-12-01 13:52:00,
2013-12-01 08:59:00,33.4,28.6,30.20,SE,130,0.0,0.0,82,0.00,,,0.00,meteobridge,2013-12-01 13:59:00,
2013-12-01 09:05:00,34.0,29.1,30.20,SE,131,0.0,0.0,82,0.00,,,0.00,meteobridge,2013-12-01 14:05:00,
2013-12-01 09:11:00,34.2,28.9,30.20,SE,131,0.0,0.0,81,0.00,,,0.00,meteobridge,2013-12-01 14:11:00,
2013-12-01 09:17:00,34.3,29.1,30.20,SE,131,0.0,0.0,81,0.00,,,0.00,meteobridge,2013-12-01 14:17:00,
2013-12-01 09:24:00,34.5,29.3,30.20,SE,131,0.0,0.0,81,0.00,,,0.00,meteobridge,2013-12-01 14:24:00,
2013-12-01 09:30:00,34.9,30.0,30.20,SE,131,0.0,0.0,82,0.00,,,0.00,meteobridge,2013-12-01 14:30:00,
2013-12-01 09:36:00,35.1,30.2,30.20,ENE,70,0.0,0.0,82,0.00,,,0.00,meteobridge,2013-12-01 14:36:00,
2013-12-01 09:42:00,35.1,30.4,30.20,ENE,71,0.0,0.0,83,0.00,,,0.00,meteobridge,2013-12-01 14:42:00,
2013-12-01 09:48:00,35.4,30.7,30.20,NNW,332,0.0,0.0,83,0.00,,,0.00,meteobridge,2013-12-01 14:48:00,
2013-12-01 09:54:00,36.0,30.9,30.20,NNW,342,0.0,0.9,82,0.00,,,0.00,meteobridge,2013-12-01 14:54:00,
2013-12-01 10:01:00,36.1,30.6,30.19,North,354,0.0,2.0,80,0.00,,,0.00,meteobridge,2013-12-01 15:01:00,
2013-12-01 10:07:00,36.1,30.9,30.19,North,352,0.0,2.0,81,0.00,,,0.00,meteobridge,2013-12-01 15:07:00,
2013-12-01 10:13:00,36.0,30.4,30.19,North,9,0.9,6.0,80,0.00,,,0.00,meteobridge,2013-12-01 15:13:00,
2013-12-01 10:19:00,36.7,31.5,30.19,NE,41,0.9,2.0,81,0.00,,,0.00,meteobridge,2013-12-01 15:19:00,
2013-12-01 10:25:00,36.7,31.1,30.18,WNW,293,4.0,4.0,80,0.00,,,0.00,meteobridge,2013-12-01 15:25:00,
2013-12-01 10:32:00,36.7,30.7,30.18,NW,309,2.0,4.9,79,0.00,,,0.00,meteobridge,2013-12-01 15:32:00,
2013-12-01 10:38:00,36.7,30.7,30.17,West,274,0.9,2.9,79,0.00,,,0.00,meteobridge,2013-12-01 15:38:00,
2013-12-01 10:44:00,37.2,31.3,30.17,NNE,21,0.9,2.0,79,0.00,,,0.00,meteobridge,2013-12-01 15:44:00,
2013-12-01 10:50:00,37.8,31.5,30.16,NW,306,0.9,2.0,78,0.00,,,0.00,meteobridge,2013-12-01 15:50:00,
2013-12-01 10:56:00,38.1,31.3,30.16,NNW,344,0.0,0.9,76,0.00,,,0.00,meteobridge,2013-12-01 15:56:00,
2013-12-01 11:02:00,38.7,31.1,30.16,NNW,346,0.9,4.0,74,0.00,,,0.00,meteobridge,2013-12-01 16:02:00,
2013-12-01 11:09:00,38.8,30.9,30.16,West,260,0.0,4.0,73,0.00,,,0.00,meteobridge,2013-12-01 16:09:00,
2013-12-01 11:15:00,39.2,30.9,30.15,NW,316,0.9,2.0,72,0.00,,,0.00,meteobridge,2013-12-01 16:15:00,
2013-12-01 11:21:00,39.4,31.5,30.15,WNW,285,0.0,4.0,73,0.00,,,0.00,meteobridge,2013-12-01 16:21:00,
2013-12-01 11:27:00,39.6,31.6,30.15,West,260,2.9,2.9,73,0.00,,,0.00,meteobridge,2013-12-01 16:27:00,
2013-12-01 11:33:00,39.4,31.5,30.14,NW,307,0.0,2.0,73,0.00,,,0.00,meteobridge,2013-12-01 16:33:00,
2013-12-01 11:39:00,39.7,31.5,30.14,WNW,300,2.0,4.9,72,0.00,,,0.00,meteobridge,2013-12-01 16:39:00,
2013-12-01 11:46:00,39.7,31.5,30.14,NW,314,0.9,2.0,72,0.00,,,0.00,meteobridge,2013-12-01 16:46:00,
2013-12-01 11:52:00,40.3,31.6,30.14,West,280,0.0,2.0,71,0.00,,,0.00,meteobridge,2013-12-01 16:52:00,
2013-12-01 11:58:00,40.6,31.3,30.13,West,270,2.0,4.9,69,0.00,,,0.00,meteobridge,2013-12-01 16:58:00,
2013-12-01 12:05:00,40.3,30.6,30.13,WNW,284,0.9,2.9,68,0.00,,,0.00,meteobridge,2013-12-01 17:05:00,
2013-12-01 12:11:00,40.3,30.9,30.12,West,262,2.9,2.9,69,0.00,,,0.00,meteobridge,2013-12-01 17:11:00,
2013-12-01 12:17:00,40.6,31.6,30.12,SE,145,0.9,2.0,70,0.00,,,0.00,meteobridge,2013-12-01 17:17:00,
2013-12-01 12:23:00,41.2,31.1,30.11,ESE,107,0.9,2.9,67,0.00,,,0.00,meteobridge,2013-12-01 17:23:00,
2013-12-01 12:29:00,42.6,32.4,30.11,WSW,257,0.9,2.0,67,0.00,,,0.00,meteobridge,2013-12-01 17:29:00,
2013-12-01 12:35:00,43.7,32.7,30.11,South,186,2.0,2.0,65,0.00,,,0.00,meteobridge,2013-12-01 17:35:00,
2013-12-01 12:42:00,44.2,32.4,30.11,South,191,2.0,2.9,63,0.00,,,0.00,meteobridge,2013-12-01 17:42:00,
2013-12-01 12:48:00,45.1,32.5,30.10,SSW,197,0.9,2.9,61,0.00,,,0.00,meteobridge,2013-12-01 17:48:00,
2013-12-01 12:54:00,45.5,31.6,30.10,WSW,255,0.9,2.9,58,0.00,,,0.00,meteobridge,2013-12-01 17:54:00,
2013-12-01 13:00:00,45.0,30.6,30.10,SSW,204,0.0,2.9,57,0.00,,,0.00,meteobridge,2013-12-01 18:00:00,
2013-12-01 13:06:00,44.8,30.9,30.09,SSE,150,4.0,4.0,58,0.00,,,0.00,meteobridge,2013-12-01 18:06:00,
2013-12-01 13:13:00,45.3,31.5,30.09,North,9,0.9,2.9,58,0.00,,,0.00,meteobridge,2013-12-01 18:13:00,
2013-12-01 13:19:00,45.7,31.3,30.09,SW,217,2.0,4.0,57,0.00,,,0.00,meteobridge,2013-12-01 18:19:00,
2013-12-01 13:25:00,45.3,30.6,30.08,WSW,243,0.0,0.9,56,0.00,,,0.00,meteobridge,2013-12-01 18:25:00,
2013-12-01 13:31:00,45.1,30.4,30.08,SSE,150,0.9,2.0,56,0.00,,,0.00,meteobridge,2013-12-01 18:31:00,
2013-12-01 13:37:00,45.1,30.4,30.08,West,269,0.9,2.0,56,0.00,,,0.00,meteobridge,2013-12-01 18:37:00,
2013-12-01 13:43:00,45.0,31.1,30.08,ESE,111,0.0,0.0,58,0.00,,,0.00,meteobridge,2013-12-01 18:43:00,
2013-12-01 13:50:00,45.1,30.7,30.08,SW,221,0.9,2.0,57,0.00,,,0.00,meteobridge,2013-12-01 18:50:00,
2013-12-01 13:56:00,45.0,30.6,30.08,WSW,252,0.0,2.0,57,0.00,,,0.00,meteobridge,2013-12-01 18:56:00,
2013-12-01 14:02:00,45.0,31.1,30.08,North,356,0.0,2.9,58,0.00,,,0.00,meteobridge,2013-12-01 19:02:00,
2013-12-01 14:09:00,44.8,31.3,30.07,West,273,0.0,2.0,59,0.00,,,0.00,meteobridge,2013-12-01 19:09:00,
2013-12-01 14:15:00,44.4,30.9,30.07,West,280,0.0,2.0,59,0.00,,,0.00,meteobridge,2013-12-01 19:15:00,
2013-12-01 14:21:00,44.2,31.3,30.07,West,280,0.0,0.0,60,0.00,,,0.00,meteobridge,2013-12-01 19:21:00,
2013-12-01 14:27:00,44.1,31.1,30.07,West,281,0.0,0.0,60,0.00,,,0.00,meteobridge,2013-12-01 19:27:00,
2013-12-01 14:34:00,44.2,31.3,30.07,WNW,285,0.9,0.9,60,0.00,,,0.00,meteobridge,2013-12-01 19:34:00,
2013-12-01 14:40:00,44.1,31.1,30.07,WNW,283,0.0,0.0,60,0.00,,,0.00,meteobridge,2013-12-01 19:40:00,
2013-12-01 14:44:00,44.1,31.1,30.07,WNW,283,0.0,0.0,60,0.00,,,0.00,meteobridge,2013-12-01 19:44:00,
2013-12-01 14:50:00,43.9,31.3,30.06,WNW,283,0.0,0.0,61,0.00,,,0.00,meteobridge,2013-12-01 19:50:00,
2013-12-01 14:56:00,43.9,31.3,30.06,WNW,283,0.0,0.0,61,0.00,,,0.00,meteobridge,2013-12-01 19:56:00,
2013-12-01 15:03:00,43.5,30.9,30.06,West,274,0.0,2.0,61,0.00,,,0.00,meteobridge,2013-12-01 20:03:00,
2013-12-01 15:09:00,43.5,31.8,30.06,West,273,0.0,0.0,63,0.00,,,0.00,meteobridge,2013-12-01 20:09:00,
2013-12-01 15:15:00,43.3,31.6,30.06,WNW,290,0.0,0.0,63,0.00,,,0.00,meteobridge,2013-12-01 20:15:00,
2013-12-01 15:21:00,43.2,31.8,30.06,WNW,285,0.0,0.0,64,0.00,,,0.00,meteobridge,2013-12-01 20:21:00,
2013-12-01 15:28:00,42.8,32.2,30.06,WNW,285,0.0,0.0,66,0.00,,,0.00,meteobridge,2013-12-01 20:28:00,
2013-12-01 15:34:00,42.6,32.0,30.06,WNW,285,0.0,0.0,66,0.00,,,0.00,meteobridge,2013-12-01 20:34:00,
2013-12-01 15:40:00,42.4,31.8,30.07,NW,308,2.9,2.9,66,0.00,,,0.00,meteobridge,2013-12-01 20:40:00,
2013-12-01 15:46:00,42.1,30.7,30.06,WSW,256,0.9,2.9,64,0.00,,,0.00,meteobridge,2013-12-01 20:46:00,
2013-12-01 15:52:00,41.9,30.6,30.06,WSW,256,0.0,2.0,64,0.00,,,0.00,meteobridge,2013-12-01 20:52:00,
2013-12-01 15:58:00,41.7,30.7,30.06,WSW,256,0.9,0.9,65,0.00,,,0.00,meteobridge,2013-12-01 20:58:00,
2013-12-01 16:05:00,41.5,30.7,30.06,WSW,255,0.9,0.9,65,0.00,,,0.00,meteobridge,2013-12-01 21:05:00,
2013-12-01 16:11:00,41.4,30.6,30.06,WSW,256,0.0,2.0,65,0.00,,,0.00,meteobridge,2013-12-01 21:11:00,
2013-12-01 16:18:00,41.2,30.4,30.06,WSW,256,0.0,0.9,65,0.00,,,0.00,meteobridge,2013-12-01 21:18:00,
2013-12-01 16:24:00,41.0,30.2,30.06,WSW,256,0.0,0.0,65,0.00,,,0.00,meteobridge,2013-12-01 21:24:00,
2013-12-01 16:30:00,40.8,30.0,30.06,West,259,2.0,2.0,65,0.00,,,0.00,meteobridge,2013-12-01 21:30:00,
2013-12-01 16:36:00,40.8,29.1,30.06,WNW,287,0.9,2.0,63,0.00,,,0.00,meteobridge,2013-12-01 21:36:00,
2013-12-01 16:42:00,40.6,29.5,30.05,West,276,0.9,0.9,64,0.00,,,0.00,meteobridge,2013-12-01 21:42:00,
2013-12-01 16:48:00,40.5,29.3,30.06,NW,304,4.0,4.0,64,0.00,,,0.00,meteobridge,2013-12-01 21:48:00,
2013-12-01 16:55:00,40.3,29.5,30.05,West,261,2.0,2.0,65,0.00,,,0.00,meteobridge,2013-12-01 21:55:00,
2013-12-01 17:01:00,40.1,29.3,30.06,NW,314,0.9,2.0,65,0.00,,,0.00,meteobridge,2013-12-01 22:01:00,
2013-12-01 17:07:00,39.9,28.8,30.06,WNW,297,0.0,0.9,64,0.00,,,0.00,meteobridge,2013-12-01 22:07:00,
2013-12-01 17:14:00,39.9,29.1,30.06,West,260,0.0,0.9,65,0.00,,,0.00,meteobridge,2013-12-01 22:14:00,
2013-12-01 17:20:00,39.7,28.9,30.06,WSW,249,0.9,2.0,65,0.00,,,0.00,meteobridge,2013-12-01 22:20:00,
2013-12-01 17:26:00,39.7,28.9,30.05,WSW,250,0.0,0.0,65,0.00,,,0.00,meteobridge,2013-12-01 22:26:00,
2013-12-01 17:32:00,39.6,28.8,30.05,WSW,250,0.0,0.0,65,0.00,,,0.00,meteobridge,2013-12-01 22:32:00,
2013-12-01 17:39:00,39.6,29.1,30.05,WSW,250,0.0,0.0,66,0.00,,,0.00,meteobridge,2013-12-01 22:39:00,
2013-12-01 17:45:00,39.6,28.8,30.05,WSW,250,0.0,0.0,65,0.00,,,0.00,meteobridge,2013-12-01 22:45:00,
2013-12-01 17:51:00,39.4,28.6,30.05,WSW,250,0.0,0.9,65,0.00,,,0.00,meteobridge,2013-12-01 22:51:00,
2013-12-01 17:57:00,39.4,28.6,30.05,WSW,250,0.9,0.9,65,0.00,,,0.00,meteobridge,2013-12-01 22:57:00,
2013-12-01 18:03:00,39.4,28.9,30.05,WSW,250,0.0,0.9,66,0.00,,,0.00,meteobridge,2013-12-01 23:03:00,
2013-12-01 18:10:00,39.2,28.8,30.04,WSW,250,0.0,0.9,66,0.00,,,0.00,meteobridge,2013-12-01 23:10:00,
2013-12-01 18:16:00,39.2,28.8,30.05,WSW,253,0.0,2.0,66,0.00,,,0.00,meteobridge,2013-12-01 23:16:00,
2013-12-01 18:22:00,39.0,28.9,30.05,WSW,255,0.0,0.9,67,0.00,,,0.00,meteobridge,2013-12-01 23:22:00,
2013-12-01 18:29:00,38.8,28.8,30.04,West,260,0.0,0.9,67,0.00,,,0.00,meteobridge,2013-12-01 23:29:00,
2013-12-01 18:35:00,38.7,28.9,30.05,West,259,0.0,0.0,68,0.00,,,0.00,meteobridge,2013-12-01 23:35:00,
2013-12-01 18:41:00,38.3,28.9,30.04,West,260,0.0,0.9,69,0.00,,,0.00,meteobridge,2013-12-01 23:41:00,
2013-12-01 18:47:00,38.1,28.9,30.05,West,262,0.0,0.9,69,0.00,,,0.00,meteobridge,2013-12-01 23:47:00,
2013-12-01 18:54:00,37.9,29.1,30.04,NW,314,0.0,0.0,70,0.00,,,0.00,meteobridge,2013-12-01 23:54:00,
2013-12-01 19:00:00,37.9,29.1,30.04,NW,314,0.0,0.9,70,0.00,,,-99.99,meteobridge,2013-12-02 00:00:00,
2013-12-01 19:06:00,37.8,28.9,30.04,NNW,338,0.0,0.9,70,0.00,,,0.00,meteobridge,2013-12-02 00:06:00,
2013-12-01 19:12:00,37.8,28.9,30.04,NW,322,0.0,0.9,70,0.00,,,0.00,meteobridge,2013-12-02 00:12:00,
2013-12-01 19:18:00,37.8,28.9,30.04,WNW,299,0.0,0.9,70,0.00,,,0.00,meteobridge,2013-12-02 00:18:00,
2013-12-01 19:25:00,37.8,28.9,30.04,WSW,250,0.0,2.0,70,0.00,,,0.00,meteobridge,2013-12-02 00:25:00,
2013-12-01 19:31:00,37.6,28.8,30.04,WNW,290,0.0,0.0,70,0.00,,,0.00,meteobridge,2013-12-02 00:31:00,
2013-12-01 19:37:00,37.4,28.6,30.04,WNW,290,0.0,0.0,70,0.00,,,0.00,meteobridge,2013-12-02 00:37:00,
2013-12-01 19:44:00,37.0,28.2,30.03,WNW,290,0.0,0.0,70,0.00,,,0.00,meteobridge,2013-12-02 00:44:00,
2013-12-01 19:50:00,36.9,28.4,30.03,WNW,290,0.0,0.9,71,0.00,,,0.00,meteobridge,2013-12-02 00:50:00,
2013-12-01 19:56:00,36.5,28.0,30.03,NW,320,0.0,0.0,71,0.00,,,0.00,meteobridge,2013-12-02 00:56:00,
2013-12-01 20:02:00,36.1,28.0,30.03,NW,321,0.0,0.0,72,0.00,,,0.00,meteobridge,2013-12-02 01:02:00,
2013-12-01 20:08:00,35.8,28.0,30.03,NW,317,0.0,0.9,73,0.00,,,0.00,meteobridge,2013-12-02 01:08:00,
2013-12-01 20:15:00,35.8,28.0,30.03,West,271,0.9,2.0,73,0.00,,,0.00,meteobridge,2013-12-02 01:15:00,
2013-12-01 20:21:00,36.0,28.2,30.03,West,271,0.0,0.9,73,0.00,,,0.00,meteobridge,2013-12-02 01:21:00,
2013-12-01 20:27:00,35.4,27.7,30.03,West,277,0.0,0.9,73,0.00,,,0.00,meteobridge,2013-12-02 01:27:00,
2013-12-01 20:33:00,35.1,27.7,30.03,West,276,0.0,0.9,74,0.00,,,0.00,meteobridge,2013-12-02 01:33:00,
2013-12-01 20:40:00,34.7,27.3,30.03,WNW,285,0.0,0.9,74,0.00,,,0.00,meteobridge,2013-12-02 01:40:00,
2013-12-01 20:46:00,34.3,27.3,30.03,NNW,335,0.9,0.9,75,0.00,,,0.00,meteobridge,2013-12-02 01:46:00,
2013-12-01 20:52:00,33.8,27.0,30.02,NNW,335,0.0,0.9,76,0.00,,,0.00,meteobridge,2013-12-02 01:52:00,
2013-12-01 20:58:00,33.4,27.0,30.02,NNW,343,0.0,0.9,77,0.00,,,0.00,meteobridge,2013-12-02 01:58:00,
2013-12-01 21:05:00,34.0,27.5,30.03,NNW,339,0.9,0.9,77,0.00,,,0.00,meteobridge,2013-12-02 02:05:00,
2013-12-01 21:11:00,33.8,27.3,30.03,NNW,339,0.0,0.9,77,0.00,,,0.00,meteobridge,2013-12-02 02:11:00,
2013-12-01 21:17:00,33.3,26.8,30.02,NNW,340,0.0,0.0,77,0.00,,,0.00,meteobridge,2013-12-02 02:17:00,
2013-12-01 21:23:00,33.3,27.1,30.02,NNW,327,0.0,0.0,78,0.00,,,0.00,meteobridge,2013-12-02 02:23:00,
2013-12-01 21:30:00,33.6,27.1,30.02,NNW,328,0.0,0.0,77,0.00,,,0.00,meteobridge,2013-12-02 02:30:00,
2013-12-01 21:36:00,33.3,27.1,30.02,NNW,328,0.0,0.0,78,0.00,,,0.00,meteobridge,2013-12-02 02:36:00,
2013-12-01 21:42:00,33.3,27.1,30.02,NNW,327,0.0,0.0,78,0.00,,,0.00,meteobridge,2013-12-02 02:42:00,
2013-12-01 21:48:00,33.3,27.1,30.02,NNW,328,0.0,0.0,78,0.00,,,0.00,meteobridge,2013-12-02 02:48:00,
2013-12-01 21:55:00,33.4,27.3,30.01,NNW,328,0.0,0.0,78,0.00,,,0.00,meteobridge,2013-12-02 02:55:00,
2013-12-01 22:01:00,33.4,27.3,30.01,NNW,328,0.0,0.0,78,0.00,,,0.00,meteobridge,2013-12-02 03:01:00,
2013-12-01 22:07:00,33.3,27.1,30.02,NNW,327,0.0,0.0,78,0.00,,,0.00,meteobridge,2013-12-02 03:07:00,
2013-12-01 22:13:00,33.3,27.1,30.01,NNW,327,0.0,0.0,78,0.00,,,0.00,meteobridge,2013-12-02 03:13:00,
2013-12-01 22:20:00,33.1,27.0,30.01,NNW,328,0.0,0.0,78,0.00,,,0.00,meteobridge,2013-12-02 03:20:00,
2013-12-01 22:26:00,32.9,26.8,30.01,NNW,328,0.0,0.0,78,0.00,,,0.00,meteobridge,2013-12-02 03:26:00,
2013-12-01 22:32:00,32.7,27.0,30.01,NNW,328,0.0,0.0,79,0.00,,,0.00,meteobridge,2013-12-02 03:32:00,
2013-12-01 22:38:00,32.2,26.8,30.01,NNW,327,0.0,0.0,80,0.00,,,0.00,meteobridge,2013-12-02 03:38:00,
2013-12-01 22:45:00,32.0,26.8,30.01,NNW,327,0.0,0.0,81,0.00,,,0.00,meteobridge,2013-12-02 03:45:00,
2013-12-01 22:51:00,31.6,26.4,30.01,NNW,328,0.0,0.0,81,0.00,,,0.00,meteobridge,2013-12-02 03:51:00,
2013-12-01 22:57:00,31.5,26.2,30.01,NNW,327,0.0,0.0,81,0.00,,,0.00,meteobridge,2013-12-02 03:57:00,
2013-12-01 23:03:00,31.5,26.6,30.01,NNW,328,0.0,0.0,82,0.00,,,0.00,meteobridge,2013-12-02 04:03:00,
2013-12-01 23:09:00,31.8,26.6,30.01,NNW,328,0.0,0.0,81,0.00,,,0.00,meteobridge,2013-12-02 04:09:00,
2013-12-01 23:16:00,32.0,26.8,30.01,NNW,327,0.0,0.0,81,0.00,,,0.00,meteobridge,2013-12-02 04:16:00,
2013-12-01 23:22:00,32.2,27.0,30.00,NNW,327,0.0,0.0,81,0.00,,,0.00,meteobridge,2013-12-02 04:22:00,
2013-12-01 23:28:00,31.8,26.6,30.00,NNW,328,0.0,0.0,81,0.00,,,0.00,meteobridge,2013-12-02 04:28:00,
2013-12-01 23:34:00,31.8,26.6,30.00,NNW,328,0.0,0.0,81,0.00,,,0.00,meteobridge,2013-12-02 04:34:00,
2013-12-01 23:40:00,31.6,26.4,30.00,NNW,328,0.0,0.0,81,0.00,,,0.00,meteobridge,2013-12-02 04:40:00,
2013-12-01 23:47:00,31.5,26.6,30.00,NNW,327,0.0,0.0,82,0.00,,,0.00,meteobridge,2013-12-02 04:47:00,
2013-12-01 23:53:00,31.6,27.1,30.00,NNW,327,0.0,0.0,83,0.00,,,0.00,meteobridge,2013-12-02 04:53:00,
2013-12-01 23:59:00,31.8,27.0,29.99,NNW,328,0.0,0.0,82,0.00,,,0.00,meteobridge,2013-12-02 04:59:00,